createdAt,value
2022-08-07T00:04:46.515Z,1.10
2022-08-07T00:10:18.996Z,1.00
2022-08-07T00:15:23.208Z,2.40
2022-08-07T00:20:35.376Z,0.90
2022-08-07T00:25:43.692Z,0.70
2022-08-07T00:30:54.419Z,0.70
2022-08-07T00:36:04.295Z,0.80
2022-08-07T00:41:14.704Z,0.50
2022-08-07T00:46:23.397Z,0.60
2022-08-07T00:51:58.498Z,1.10
2022-08-07T00:57:02.066Z,1.20
2022-08-07T01:02:28.883Z,1.80
2022-08-07T01:07:39.450Z,1.60
2022-08-07T01:12:53.715Z,1.20
2022-08-07T01:18:05.696Z,1.10
2022-08-07T01:23:21.022Z,1.10
2022-08-07T01:28:48.380Z,1.10
2022-08-07T01:34:04.456Z,1.20
2022-08-07T01:39:16.878Z,1.90
2022-08-07T01:44:32.049Z,0.90
2022-08-07T01:49:41.435Z,1.10
2022-08-07T01:54:48.687Z,1.10
2022-08-07T02:00:03.231Z,1.40
2022-08-07T02:05:28.632Z,1.20
2022-08-07T02:11:06.603Z,1.10
2022-08-07T02:16:28.649Z,1.10
2022-08-07T02:21:55.068Z,1.10
2022-08-07T02:32:14.579Z,1.20
2022-08-07T02:37:25.606Z,1.30
2022-08-07T02:42:35.672Z,1.80
2022-08-07T02:47:48.902Z,1.70
2022-08-07T02:53:03.726Z,1.90
2022-08-07T02:58:19.373Z,1.40
2022-08-07T03:03:50.102Z,1.30
2022-08-07T03:09:05.486Z,1.60
2022-08-07T03:14:15.246Z,1.00
2022-08-07T03:19:24.445Z,1.10
2022-08-07T03:24:39.057Z,1.20
2022-08-07T03:29:51.254Z,1.10
2022-08-07T03:35:17.781Z,1.10
2022-08-07T03:40:31.105Z,1.10
2022-08-07T03:45:48.754Z,1.20
2022-08-07T03:51:02.005Z,1.10
2022-08-07T03:56:32.587Z,1.10
2022-08-07T04:01:47.140Z,1.10
2022-08-07T04:07:00.146Z,0.90
2022-08-07T04:12:24.310Z,0.80
2022-08-07T04:18:56.893Z,1.10
2022-08-07T04:23:08.447Z,1.10
2022-08-07T04:28:29.347Z,1.20
2022-08-07T04:33:38.936Z,1.20
2022-08-07T04:38:48.146Z,1.40
2022-08-07T04:44:14.602Z,1.50
2022-08-07T04:49:38.762Z,1.50
2022-08-07T04:54:58.130Z,1.40
2022-08-07T05:00:18.809Z,1.40
2022-08-07T05:05:53.524Z,1.70
2022-08-07T05:11:11.692Z,1.60
2022-08-07T05:21:59.864Z,1.50
2022-08-07T05:27:07.671Z,1.50
2022-08-07T05:32:27.961Z,1.50
2022-08-07T05:37:40.903Z,1.50
2022-08-07T05:42:56.031Z,1.50
2022-08-07T05:48:08.069Z,1.40
2022-08-07T05:54:12.475Z,1.50
2022-08-07T05:58:53.267Z,1.70
2022-08-07T06:04:10.042Z,1.60
2022-08-07T06:09:22.791Z,1.40
2022-08-07T06:14:50.947Z,1.80
2022-08-07T06:20:03.979Z,1.50
2022-08-07T06:25:15.210Z,1.70
2022-08-07T06:30:36.213Z,1.40
2022-08-07T06:36:06.919Z,1.50
2022-08-07T06:42:02.156Z,1.80
2022-08-07T06:47:10.680Z,1.70
2022-08-07T06:52:31.419Z,1.90
2022-08-07T06:57:56.822Z,1.60
2022-08-07T07:03:13.642Z,1.70
2022-08-07T07:08:33.352Z,1.60
2022-08-07T07:13:58.060Z,1.60
2022-08-07T07:19:56.920Z,1.70
2022-08-07T07:24:57.051Z,1.40
2022-08-07T07:30:14.460Z,1.60
2022-08-07T07:36:05.690Z,1.40
2022-08-07T07:41:16.577Z,1.20
2022-08-07T07:46:37.489Z,1.50
2022-08-07T07:51:58.328Z,1.40
2022-08-07T07:57:09.844Z,1.30
2022-08-07T08:07:59.858Z,1.20
2022-08-07T08:13:15.227Z,1.20
2022-08-07T08:18:29.616Z,1.20
2022-08-07T08:23:58.288Z,1.30
2022-08-07T08:29:09.078Z,1.30
2022-08-07T08:34:27.314Z,1.50
2022-08-07T08:39:55.235Z,1.00
2022-08-07T08:45:15.500Z,1.10
2022-08-07T08:50:34.873Z,1.10
2022-08-07T08:55:58.804Z,0.90
2022-08-07T09:01:19.407Z,1.10
2022-08-07T09:06:40.384Z,0.90
2022-08-07T09:12:20.044Z,0.90
2022-08-07T09:17:58.879Z,0.70
2022-08-07T09:24:53.814Z,1.10
2022-08-07T09:30:05.169Z,0.80
2022-08-07T09:34:43.052Z,1.00
2022-08-07T09:47:42.358Z,0.90
2022-08-07T09:51:01.419Z,1.10
2022-08-07T09:56:41.802Z,1.10
2022-08-07T10:02:10.937Z,0.70
2022-08-07T10:07:53.103Z,0.80
2022-08-07T10:13:55.086Z,0.70
2022-08-07T10:19:30.199Z,0.70
2022-08-07T10:24:59.594Z,0.50
2022-08-07T10:30:13.065Z,2.00
2022-08-07T10:35:56.258Z,0.90
2022-08-07T10:41:09.118Z,0.50
2022-08-07T10:46:26.552Z,0.90
2022-08-07T10:52:12.964Z,0.80
2022-08-07T10:57:17.875Z,2.40
2022-08-07T11:08:12.444Z,0.70
2022-08-07T11:14:44.639Z,0.60
2022-08-07T11:19:07.174Z,0.70
2022-08-07T11:24:24.104Z,0.70
2022-08-07T11:29:47.418Z,1.00
2022-08-07T11:35:03.077Z,0.80
2022-08-07T11:40:27.613Z,0.70
2022-08-07T11:45:53.089Z,1.10
2022-08-07T11:51:44.708Z,1.10
2022-08-07T11:57:05.347Z,1.30
2022-08-07T12:02:38.135Z,1.10
2022-08-07T12:08:11.402Z,0.90
2022-08-07T12:13:47.509Z,1.00
2022-08-07T12:24:37.703Z,1.00
2022-08-07T12:29:55.275Z,0.80
2022-08-07T12:35:08.206Z,1.00
2022-08-07T12:40:46.721Z,1.00
2022-08-07T12:45:56.408Z,1.00
2022-08-07T12:51:17.291Z,0.80
2022-08-07T13:01:51.392Z,0.80
2022-08-07T13:08:12.913Z,0.80
2022-08-07T13:13:47.883Z,0.70
2022-08-07T13:18:55.589Z,0.70
2022-08-07T13:24:11.440Z,0.70
2022-08-07T13:29:25.893Z,0.80
2022-08-07T13:34:50.886Z,0.70
2022-08-07T13:40:35.230Z,0.70
2022-08-07T13:46:11.285Z,0.40
2022-08-07T13:52:22.672Z,0.80
2022-08-07T13:57:09.034Z,0.80
2022-08-07T14:02:33.354Z,0.50
2022-08-07T14:08:00.864Z,0.70
2022-08-07T14:18:28.675Z,1.30
2022-08-07T14:30:06.431Z,1.10
2022-08-07T14:34:45.715Z,0.70
2022-08-07T14:40:15.654Z,0.60
2022-08-07T14:45:26.059Z,0.50
2022-08-07T14:50:57.246Z,0.50
2022-08-07T14:56:13.291Z,0.40
2022-08-07T15:01:25.978Z,0.90
2022-08-07T15:06:52.883Z,0.80
2022-08-07T15:12:08.506Z,0.60
2022-08-07T15:17:21.218Z,0.70
2022-08-07T15:22:33.751Z,1.00
2022-08-07T15:28:02.095Z,0.90
2022-08-07T15:33:33.439Z,0.40
2022-08-07T15:38:59.006Z,0.60
2022-08-07T15:44:13.024Z,0.60
2022-08-07T15:50:05.767Z,0.40
2022-08-07T15:54:57.220Z,0.40
2022-08-07T16:00:30.988Z,0.70
2022-08-07T16:05:47.098Z,1.20
2022-08-07T16:10:59.759Z,1.30
2022-08-07T16:16:48.249Z,1.30
2022-08-07T16:22:03.293Z,1.20
2022-08-07T16:27:40.599Z,1.10
2022-08-07T16:34:03.398Z,1.00
2022-08-07T16:39:01.211Z,1.00
2022-08-07T16:45:14.729Z,0.90
2022-08-07T16:50:52.572Z,1.20
2022-08-07T17:01:41.261Z,1.40
2022-08-07T17:07:03.202Z,1.30
2022-08-07T17:12:34.510Z,0.90
2022-08-07T17:17:55.248Z,2.50
2022-08-07T17:23:32.572Z,2.80
2022-08-07T17:29:04.650Z,1.50
2022-08-07T17:34:35.463Z,1.10
2022-08-07T17:40:03.428Z,0.70
2022-08-07T17:45:19.764Z,0.60
2022-08-07T17:50:47.826Z,0.90
2022-08-07T17:56:06.619Z,1.50
2022-08-07T18:01:23.681Z,2.00
2022-08-07T18:06:44.215Z,1.80
2022-08-07T18:12:11.867Z,1.70
2022-08-07T18:18:36.656Z,2.30
2022-08-07T18:23:35.241Z,3.00
2022-08-07T18:28:59.124Z,3.10
2022-08-07T18:34:40.873Z,3.00
2022-08-07T18:40:42.471Z,2.70
2022-08-07T18:46:25.120Z,2.20
2022-08-07T18:52:35.204Z,1.90
2022-08-07T18:57:30.112Z,1.70
2022-08-07T19:03:01.433Z,1.60
2022-08-07T19:08:14.475Z,1.40
2022-08-07T19:13:39.213Z,1.10
2022-08-07T19:18:56.706Z,1.10
2022-08-07T19:24:12.541Z,1.30
2022-08-07T19:31:01.611Z,1.20
2022-08-07T19:35:18.690Z,1.50
2022-08-07T19:40:49.397Z,1.20
2022-08-07T19:46:08.190Z,1.10
2022-08-07T19:51:52.392Z,1.20
2022-08-07T19:58:01.222Z,1.50
2022-08-07T20:02:39.124Z,1.90
2022-08-07T20:07:50.775Z,2.40
2022-08-07T20:13:06.101Z,2.30
2022-08-07T20:18:19.897Z,1.80
2022-08-07T20:23:43.373Z,2.00
2022-08-07T20:29:00.106Z,2.10
2022-08-07T20:34:10.165Z,1.90
2022-08-07T20:40:03.240Z,2.20
2022-08-07T20:44:59.791Z,2.40
2022-08-07T20:50:10.954Z,1.90
2022-08-07T20:55:23.569Z,1.80
2022-08-07T21:00:42.752Z,2.00
2022-08-07T21:05:56.391Z,1.90
2022-08-07T21:11:05.589Z,1.60
2022-08-07T21:16:20.103Z,2.00
2022-08-07T21:21:56.627Z,1.80
2022-08-07T21:27:22.039Z,1.60
2022-08-07T21:32:46.701Z,1.60
2022-08-07T21:38:11.355Z,1.60
2022-08-07T21:43:47.417Z,1.30
2022-08-07T21:49:01.277Z,2.00
2022-08-07T21:54:21.820Z,2.20
2022-08-07T22:00:04.673Z,2.00
2022-08-07T22:05:22.137Z,2.00
2022-08-07T22:10:51.763Z,2.80
2022-08-07T22:16:43.091Z,2.40
2022-08-07T22:22:02.836Z,2.00
2022-08-07T22:27:19.145Z,1.60
2022-08-07T22:32:39.119Z,1.90
2022-08-07T22:38:01.833Z,1.60
2022-08-07T22:43:17.928Z,2.30
2022-08-07T22:49:02.237Z,2.40
2022-08-07T22:54:50.973Z,3.30
2022-08-07T23:00:13.238Z,2.60
2022-08-07T23:06:07.731Z,2.40
2022-08-07T23:11:41.212Z,2.20
2022-08-07T23:17:05.362Z,2.10
2022-08-07T23:22:32.203Z,1.70
2022-08-07T23:28:21.792Z,1.70
2022-08-07T23:34:35.329Z,1.60
2022-08-07T23:39:48.717Z,1.50
2022-08-07T23:45:33.188Z,1.60
2022-08-07T23:50:54.475Z,1.60
2022-08-07T23:56:12.792Z,1.50
